Messwerte Nipawin

Temperatur

Temperatur
°C
1575518400 22.00 22.00 -9
1575522000 23.00 23.00 -10
1575525600 0.00 0.00 -10
1575529200 1.00 1.00 -11
1575532800 2.00 2.00 -11
1575536400 3.00 3.00 -13
1575540000 4.00 4.00 -12
1575543600 5.00 5.00 -12
1575547200 6.00 6.00 -12
1575550800 7.00 7.00 -12
1575554400 8.00 8.00 -12
1575558000 9.00 9.00
1575561600 10.00 10.00 -12
1575565200 11.00 11.00 -13
1575568800 12.00 12.00 -13
1575572400 13.00 13.00 -12
1575576000 14.00 14.00 -12
1575579600 15.00 15.00 -12
1575583200 16.00 16.00 -14
1575586800 17.00 17.00 -15
1575590400 18.00 18.00 -16
1575594000 19.00 19.00 -13
1575597600 20.00 20.00
1575601200 21.00 21.00 -11

Aktuellste Messwerte

Wettercharakter
Wetter: bedeckt, etwas Schnee
Temperatur
-12 °C
Feuchtigkeit
85 %
Wind
10 km/hWindrichtung: Süd
Luftdruck
1020 hPa
Messzeit: 5. Dezember 2019, 21.00Datenquelle: METAR

Weitere Messstationen in der Nähe

Messstation Temperatur Entfernung
Nipawin -11 °C 1 km
Melfort -13 °C 69 km
Prince Albert -14 °C 112 km
Wynyard -9 °C 174 km
The Pas -16 °C 204 km
Watrous East -13 °C 207 km
Flin Flon Airport - 213 km

Wind

Windrichtung Böen Mittelwind
° km/h km/h
1575518400 22.00 21.00 - 22.00 340° 20
1575522000 23.00 22.00 - 23.00 310° 20
1575525600 0.00 23.00 - 0.00 300° 20
1575529200 1.00 0.00 - 1.00 300° 15
1575532800 2.00 1.00 - 2.00 290° 15
1575536400 3.00 2.00 - 3.00 290° 10
1575540000 4.00 3.00 - 4.00 290° 15
1575543600 5.00 4.00 - 5.00 290° 15
1575547200 6.00 5.00 - 6.00 320° 10
1575550800 7.00 6.00 - 7.00 330° 10
1575554400 8.00 7.00 - 8.00 290° 10
1575558000 9.00 8.00 - 9.00
1575561600 10.00 9.00 - 10.00 300° 10
1575565200 11.00 10.00 - 11.00 250° 10
1575568800 12.00 11.00 - 12.00 250° 15
1575572400 13.00 12.00 - 13.00 270° 15
1575576000 14.00 13.00 - 14.00 170° 10
1575579600 15.00 14.00 - 15.00 180° 5
1575583200 16.00 15.00 - 16.00 180° 15
1575586800 17.00 16.00 - 17.00 160° 10
1575590400 18.00 17.00 - 18.00 170° 10
1575594000 19.00 18.00 - 19.00 150° 10
1575597600 20.00 19.00 - 20.00
1575601200 21.00 20.00 - 21.00 160° 10

Ihre Wetterstation

Fehlt Ihre Wetterstation auf unserem Portal?

Schreiben Sie an network@meteonews.ch

Klima

Wann ist es am wärmsten? Wann regnet es am wenigsten? Unsere Klimadaten geben Auskunft.